Flight Track Log - Related Links

Times and Time Zones

All times are in EDT time to prevent confusion due to time zone crossing. See the N10933 flight status page for this flight to view local times or setup timezone preferences in your user account.


Time Position Orientation Groundspeed Altitude Reporting Facility
EDT Latitude Longitude Course Direction KTS MPH feet Rate Location/Type
Sun 02:17:52 PM 44.8939 -67.1819 270° West 167 192 5,500  Level Boston Center
Sun 02:18:52 PM 44.8942 -67.2347 270° West 150 173 6,200 750 Climbing Boston Center
Sun 02:19:52 PM 44.8922 -67.2878 267° West 140 161 7,000 850 Climbing Boston Center
Sun 02:20:52 PM 44.8928 -67.3433 271° West 140 161 7,900 850 Climbing Boston Center
Sun 02:21:52 PM 44.8931 -67.3961 270° West 140 161 8,700 650 Climbing Boston Center
Sun 02:22:52 PM 44.8956 -67.4547 273° West 140 161 9,200 550 Climbing Boston Center
Sun 02:23:00 PM 44.9000 -67.3852 270° West  Level FlightAware Approximate
Sun 02:23:52 PM 44.8961 -67.5161 271° West 151 174 9,800  Level Boston Center
Sun 02:24:52 PM 44.8986 -67.5775 273° West 158 182 10,300 550 Climbing Boston Center
Sun 02:25:52 PM 44.9014 -67.6419 274° West 158 182 10,900 600 Climbing Boston Center
Sun 02:26:52 PM 44.8981 -67.7125 266° West 158 182 11,500 600 Climbing Boston Center
Sun 02:27:52 PM 44.9006 -67.7739 273° West 158 182 12,100 300 Climbing Boston Center
Sun 02:28:52 PM 44.8992 -67.8414 268° West 158 182 12,100  Level Boston Center
Sun 02:29:52 PM 44.8975 -67.9089 268° West 163 188 12,100  Level Boston Center
Sun 02:30:52 PM 44.8961 -67.9767 268° West 168 193 12,100  Level Boston Center
Sun 02:31:52 PM 44.8944 -68.0469 268° West 173 199 12,100  Level Boston Center
Sun 02:32:52 PM 44.8950 -68.1144 271° West 179 206 12,100  Level Boston Center
Sun 02:33:52 PM 44.8953 -68.1789 270° West 179 206 12,100  Level Boston Center
Sun 02:34:52 PM 44.8978 -68.2492 273° West 179 206 12,100  Level Boston Center
Sun 02:35:52 PM 44.8983 -68.3164 271° West 179 206 12,100  Level Boston Center
Sun 02:36:52 PM 44.8967 -68.3869 268° West 179 206 12,100  Level Boston Center
Sun 02:37:52 PM 44.8947 -68.4575 268° West 179 206 12,100  Level Boston Center
Sun 02:38:52 PM 44.8931 -68.5281 268° West 179 206 12,100  Level Boston Center
Sun 02:39:52 PM 44.8933 -68.5953 270° West 179 206 12,100  Level Boston Center
Sun 02:40:52 PM 44.8933 -68.6658 270° West 179 206 12,100  Level Boston Center
Sun 02:41:52 PM 44.8914 -68.7333 268° West 179 206 12,100  Level Boston Center
Sun 02:42:52 PM 44.8917 -68.8036 270° West 179 206 12,100  Level Boston Center
Sun 02:43:52 PM 44.8897 -68.8742 268° West 179 206 12,100  Level Boston Center
Sun 02:44:52 PM 44.8878 -68.9475 268° West 179 206 12,100  Level Boston Center
Sun 02:45:52 PM 44.8878 -69.0178 270° West 179 206 12,100  Level Boston Center
Sun 02:46:52 PM 44.8878 -69.0881 270° West 179 206 12,100  Level Boston Center
Sun 02:47:52 PM 44.8878 -69.1583 270° West 179 206 12,100  Level Boston Center
Sun 02:48:52 PM 44.8856 -69.2289 267° West 179 206 12,100  Level Boston Center
Sun 02:49:52 PM 44.8853 -69.2992 270° West 179 206 12,100 -50 Level Boston Center
Sun 02:50:52 PM 44.8853 -69.3725 270° West 179 206 12,000 -50 Descending Boston Center
Sun 02:51:52 PM 44.8850 -69.4428 270° West 179 206 12,000  Level Boston Center
Sun 02:52:52 PM 44.8828 -69.5161 268° West 179 206 12,000 50 Level Boston Center
Sun 02:53:52 PM 44.8822 -69.5808 269° West 179 206 12,100 50 Climbing Boston Center
Sun 02:54:52 PM 44.8817 -69.6422 269° West 179 206 12,100 -50 Level Boston Center
Sun 02:55:52 PM 44.8811 -69.7039 269° West 167 192 12,000 -50 Descending Boston Center
Sun 02:56:52 PM 44.8783 -69.7656 266° West 162 186 12,000 50 Level Boston Center
Sun 02:57:52 PM 44.8778 -69.8300 269° West 157 181 12,100 50 Climbing Boston Center
Sun 02:58:52 PM 44.8747 -69.8800 265° West 162 186 12,100 -50 Level Boston Center
Sun 02:59:52 PM 44.8742 -69.9561 269° West 162 186 12,000  Descending Boston Center
Sun 03:00:52 PM 44.8736 -70.0206 269° West 162 186 12,100 50 Climbing Boston Center
Sun 03:01:52 PM 44.8728 -70.0908 269° West 167 192 12,100 -50 Level Boston Center
Sun 03:02:52 PM 44.8722 -70.1614 269° West 178 205 12,000  Descending Boston Center
Sun 03:03:52 PM 44.8714 -70.2317 269° West 183 211 12,100  Climbing Boston Center
Sun 03:04:52 PM 44.8706 -70.2872 269° West 183 211 12,000  Descending Boston Center
Sun 03:05:52 PM 44.8678 -70.3694 267° West 183 211 12,100 50 Climbing Boston Center
Sun 03:06:52 PM 44.8692 -70.4425 272° West 178 205 12,100  Level Boston Center
Sun 03:07:52 PM 44.8681 -70.5128 269° West 178 205 12,100  Level Boston Center
Sun 03:08:52 PM 44.8672 -70.5833 269° West 178 205 12,100 -50 Level Boston Center
Sun 03:09:52 PM 44.8664 -70.6536 269° West 178 205 12,000 -50 Descending Boston Center
Sun 03:10:52 PM 44.8653 -70.7239 269° West 178 205 12,000 100 Level Boston Center
Sun 03:11:52 PM 44.8642 -70.7942 269° West 183 211 12,200 100 Climbing Boston Center
Sun 03:12:52 PM 44.8631 -70.8675 269° West 183 211 12,200 -50 Level Boston Center
Sun 03:13:52 PM 44.8642 -70.9378 271° West 178 205 12,100  Descending Boston Center
Sun 03:14:52 PM 44.8628 -71.0108 268° West 178 205 12,200 50 Climbing Boston Center
Sun 03:15:52 PM 44.8617 -71.0814 269° West 178 205 12,200  Level Boston Center
Sun 03:16:52 PM 44.8625 -71.1517 271° West 178 205 12,200 -50 Level Boston Center
Sun 03:17:52 PM 44.8611 -71.2278 269° West 178 205 12,100 -45 Descending Boston Center
Sun 03:19:04 PM 44.8600 -71.3008 269° West 178 205 12,100  Level Boston Center
Sun 03:20:16 PM 44.8586 -71.3947 269° West 178 205 12,100 45 Level Boston Center
Sun 03:21:16 PM 44.8550 -71.4650 266° West 178 205 12,200  Climbing Boston Center
Sun 03:22:16 PM 44.8517 -71.5383 266° West 183 211 12,100 -50 Descending Boston Center
Sun 03:23:16 PM 44.8500 -71.5969 268° West 183 211 12,100  Level Boston Center
Sun 03:24:16 PM 44.8442 -71.6819 265° West 183 211 12,100 50 Level Boston Center
Sun 03:25:16 PM 44.8406 -71.7522 266° West 183 211 12,200  Climbing Boston Center
Sun 03:26:16 PM 44.8367 -71.8225 266° West 178 205 12,100  Descending Boston Center
Sun 03:27:16 PM 44.8331 -71.8928 266° West 178 205 12,200 50 Climbing Boston Center
Sun 03:28:16 PM 44.8292 -71.9631 266° West 178 205 12,200  Level Boston Center
Sun 03:29:16 PM 44.8253 -72.0303 265° West 178 205 12,200 -50 Level Boston Center
Sun 03:30:16 PM 44.8211 -72.1006 265° West 178 205 12,100  Descending Boston Center
Sun 03:31:16 PM 44.8172 -72.1708 266° West 178 205 12,200 50 Climbing Boston Center
Sun 03:32:16 PM 44.8111 -72.2411 263° West 178 205 12,200 -50 Level Boston Center
Sun 03:33:16 PM 44.8072 -72.3114 266° West 178 205 12,100 -100 Descending Boston Center
Sun 03:34:16 PM 44.8031 -72.3844 265° West 178 205 12,000 -50 Descending Boston Center
Sun 03:35:16 PM 44.7967 -72.4547 263° West 178 205 12,000 50 Level Boston Center
Sun 03:36:16 PM 44.7947 -72.5250 268° West 178 205 12,100  Climbing Boston Center
Sun 03:37:16 PM 44.7903 -72.5950 265° West 178 205 12,000 -50 Descending Boston Center
Sun 03:38:16 PM 44.7881 -72.6653 267° West 178 205 12,000 50 Level Boston Center
Sun 03:39:16 PM 44.7839 -72.7356 265° West 178 205 12,100 45 Climbing Boston Center
Sun 03:40:28 PM 44.7817 -72.8056 267° West 178 205 12,100  Level Boston Center
Sun 03:41:28 PM 44.7772 -72.8903 266° West 178 205 12,100  Level Boston Center
Sun 03:42:28 PM 44.7747 -72.9606 267° West 178 205 12,100 -50 Level Boston Center
Sun 03:43:28 PM 44.7703 -73.0131 263° West 178 205 12,000  Descending Boston Center
Sun 03:44:28 PM 44.7678 -73.1039 268° West 191 220 12,100  Climbing Boston Center
Sun 03:45:28 PM 44.7653 -73.1681 267° West 191 220 12,000 -50 Descending Boston Center
Sun 03:46:28 PM 44.7628 -73.2325 267° West 185 213 12,000 50 Level Boston Center
Sun 03:47:28 PM 44.7603 -73.3025 267° West 180 207 12,100 45 Climbing Boston Center
Sun 03:48:40 PM 44.7533 -73.3842 263° West 180 207 12,100  Level Boston Center
Sun 03:49:40 PM 44.7486 -73.4542 265° West 180 207 12,100 -50 Level Boston Center
Sun 03:50:40 PM 44.7436 -73.5244 264° West 180 207 12,000 -50 Descending Boston Center
Sun 03:51:40 PM 44.7389 -73.5972 265° West 180 207 12,000  Level Boston Center
Sun 03:52:40 PM 44.7361 -73.6675 267° West 180 207 12,000 -250 Level Boston Center
Sun 03:53:40 PM 44.7311 -73.7403 265° West 185 213 11,500 -550 Descending Boston Center
Sun 03:54:40 PM 44.7281 -73.8222 267° West 191 220 10,900 -250 Descending Boston Center
Sun 03:55:40 PM 44.7231 -73.8892 264° West 191 220 11,000 50 Climbing Boston Center
Sun 03:56:40 PM 44.7203 -73.9533 267° West 178 205 11,000 -250 Level Boston Center
Sun 03:57:40 PM 44.7194 -74.0175 269° West 173 199 10,500 -750 Descending Boston Center
Sun 03:58:40 PM 44.7142 -74.0906 264° West 181 208 9,500 -950 Descending Boston Center
Sun 03:59:40 PM 44.7131 -74.1578 269° West 186 214 8,600 -950 Descending Boston Center
Sun 04:00:40 PM 44.7308 -74.2283 290° West 191 220 7,600 -900 Descending Boston Center
Sun 04:01:40 PM 44.7444 -74.2958 286° West 186 214 6,800 -800 Descending Boston Center
Sun 04:02:40 PM 44.7517 -74.3633 279° West 181 208 6,000 -450 Descending Boston Center
Sun 04:03:40 PM 44.7569 -74.4219 277° West 176 203 5,900 -100 Descending Boston Center

Login

Don't have an account? Register now (free) for customized features, flight alerts, and more!